createdAt,value
2022-12-14T00:00:00.886Z,101178.78
2022-12-14T00:03:03.443Z,101187.50
2022-12-14T00:06:18.189Z,101181.59
2022-12-14T00:09:20.792Z,101188.44
2022-12-14T00:12:26.393Z,101192.97
2022-12-14T00:15:28.889Z,101186.94
2022-12-14T00:18:31.032Z,101199.97
2022-12-14T00:21:35.973Z,101196.84
2022-12-14T00:24:38.311Z,101209.19
2022-12-14T00:27:46.491Z,101196.09
2022-12-14T00:30:49.175Z,101188.44
2022-12-14T00:33:53.363Z,101217.22
2022-12-14T00:36:56.580Z,101218.59
2022-12-14T00:40:00.344Z,101220.13
2022-12-14T00:43:02.583Z,101214.25
2022-12-14T00:46:05.335Z,101207.56
2022-12-14T00:49:10.103Z,101210.59
2022-12-14T00:52:12.207Z,101214.13
2022-12-14T00:55:15.295Z,101225.75
2022-12-14T00:58:22.064Z,101224.59
2022-12-14T01:01:24.426Z,101215.59
2022-12-14T01:04:29.827Z,101224.19
2022-12-14T01:07:33.274Z,101212.16
2022-12-14T01:10:41.101Z,101200.56
2022-12-14T01:13:43.719Z,101204.69
2022-12-14T01:16:47.349Z,101205.06
2022-12-14T01:19:50.240Z,101197.84
2022-12-14T01:22:59.403Z,101219.00
2022-12-14T01:26:04.811Z,101204.28
2022-12-14T01:29:09.203Z,101153.44
2022-12-14T01:32:11.529Z,101217.91
2022-12-14T01:35:14.098Z,101226.72
2022-12-14T01:38:16.307Z,101179.81
2022-12-14T01:41:47.731Z,101163.31
2022-12-14T01:44:57.365Z,101208.03
2022-12-14T01:48:03.352Z,101237.06
2022-12-14T01:51:05.921Z,101200.19
2022-12-14T01:54:13.016Z,101197.13
2022-12-14T01:57:17.265Z,101234.81
2022-12-14T02:00:20.588Z,101221.66
2022-12-14T02:03:29.399Z,101174.91
2022-12-14T02:06:38.374Z,101257.81
2022-12-14T02:09:42.215Z,101249.53
2022-12-14T02:12:49.447Z,101242.66
2022-12-14T02:15:52.658Z,101250.22
2022-12-14T02:18:55.013Z,101254.41
2022-12-14T02:22:18.600Z,101250.16
2022-12-14T02:25:27.721Z,101247.16
2022-12-14T02:29:07.103Z,101251.13
2022-12-14T02:32:40.062Z,101244.69
2022-12-14T02:35:44.880Z,101247.25
2022-12-14T02:38:55.620Z,101263.66
2022-12-14T02:42:09.776Z,101261.53
2022-12-14T02:45:24.069Z,101257.06
2022-12-14T02:48:33.252Z,101265.41
2022-12-14T02:51:57.057Z,101253.44
2022-12-14T02:55:18.088Z,101268.41
2022-12-14T02:58:34.173Z,101262.34
2022-12-14T03:01:39.973Z,101261.91
2022-12-14T03:04:47.776Z,101249.75
2022-12-14T03:08:08.982Z,101260.34
2022-12-14T03:11:16.339Z,101261.06
2022-12-14T03:14:28.850Z,101239.59
2022-12-14T03:17:34.717Z,101279.44
2022-12-14T03:20:39.240Z,101279.84
2022-12-14T03:23:44.147Z,101259.69
2022-12-14T03:26:59.548Z,101262.47
2022-12-14T03:30:12.790Z,101282.28
2022-12-14T03:33:18.887Z,101290.47
2022-12-14T03:36:42.765Z,101288.34
2022-12-14T03:39:47.807Z,101294.53
2022-12-14T03:42:56.127Z,101306.00
2022-12-14T03:46:03.377Z,101278.44
2022-12-14T03:49:28.376Z,101257.69
2022-12-14T03:53:04.122Z,101300.50
2022-12-14T03:56:33.003Z,101301.63
2022-12-14T03:59:47.539Z,101296.53
2022-12-14T04:03:27.729Z,101296.38
2022-12-14T04:06:40.882Z,101305.13
2022-12-14T04:10:02.131Z,101304.72
2022-12-14T04:13:28.027Z,101307.28
2022-12-14T04:16:56.208Z,101284.34
2022-12-14T04:20:09.821Z,101299.91
2022-12-14T04:23:42.852Z,101300.59
2022-12-14T04:26:53.527Z,101297.22
2022-12-14T04:29:57.502Z,101294.66
2022-12-14T04:33:27.133Z,101291.44
2022-12-14T04:36:51.646Z,101312.91
2022-12-14T04:40:05.521Z,101312.91
2022-12-14T04:43:15.034Z,101306.25
2022-12-14T04:46:25.308Z,101309.38
2022-12-14T04:49:36.819Z,101306.69
2022-12-14T04:52:47.161Z,101277.97
2022-12-14T04:55:55.154Z,101310.50
2022-12-14T04:58:57.443Z,101299.47
2022-12-14T05:02:21.121Z,101302.16
2022-12-14T05:05:30.850Z,101274.78
2022-12-14T05:08:56.066Z,101304.91
2022-12-14T05:12:18.301Z,101301.81
2022-12-14T05:15:30.456Z,101287.50
2022-12-14T05:18:39.013Z,101280.06
2022-12-14T05:21:51.069Z,101281.41
2022-12-14T05:24:53.244Z,101299.50
2022-12-14T05:27:55.373Z,101311.25
2022-12-14T05:30:57.529Z,101312.09
2022-12-14T05:33:59.561Z,101311.19
2022-12-14T05:37:01.577Z,101324.47
2022-12-14T05:40:04.227Z,101303.53
2022-12-14T05:43:12.372Z,101319.47
2022-12-14T05:46:14.553Z,101312.00
2022-12-14T05:49:16.693Z,101314.88
2022-12-14T05:52:19.040Z,101319.94
2022-12-14T05:55:21.398Z,101311.09
2022-12-14T05:58:23.336Z,101317.41
2022-12-14T06:01:25.548Z,101320.97
2022-12-14T06:04:27.713Z,101320.22
2022-12-14T06:07:29.776Z,101329.88
2022-12-14T06:10:31.810Z,101329.13
2022-12-14T06:13:33.896Z,101337.56
2022-12-14T06:16:37.328Z,101346.78
2022-12-14T06:19:39.607Z,101341.78
2022-12-14T06:22:47.413Z,101321.78
2022-12-14T06:25:56.554Z,101333.34
2022-12-14T06:29:08.075Z,101351.03
2022-12-14T06:32:10.165Z,101319.63
2022-12-14T06:35:12.338Z,101342.78
2022-12-14T06:38:15.031Z,101329.03
2022-12-14T06:41:19.134Z,101322.50
2022-12-14T06:44:21.311Z,101325.72
2022-12-14T06:47:23.605Z,101316.94
2022-12-14T06:50:29.867Z,101333.06
2022-12-14T06:53:33.665Z,101318.25
2022-12-14T06:56:35.812Z,101333.13
2022-12-14T06:59:44.525Z,101296.28
2022-12-14T07:02:47.654Z,101318.41
2022-12-14T07:05:56.624Z,101321.63
2022-12-14T07:09:14.828Z,101312.03
2022-12-14T07:12:19.658Z,101318.38
2022-12-14T07:15:21.762Z,101326.03
2022-12-14T07:18:24.700Z,101285.34
2022-12-14T07:21:27.690Z,101328.22
2022-12-14T07:24:30.336Z,101316.22
2022-12-14T07:27:33.081Z,101309.00
2022-12-14T07:30:35.201Z,101328.78
2022-12-14T07:33:37.637Z,101328.41
2022-12-14T07:36:39.801Z,101313.19
2022-12-14T07:39:41.817Z,101320.78
2022-12-14T07:42:55.609Z,101284.47
2022-12-14T07:46:16.389Z,101308.06
2022-12-14T07:49:21.878Z,101303.31
2022-12-14T07:52:37.175Z,101303.22
2022-12-14T07:56:08.629Z,101321.84
2022-12-14T07:59:25.665Z,101332.44
2022-12-14T08:02:41.059Z,101335.69
2022-12-14T08:05:43.304Z,101354.16
2022-12-14T08:08:45.944Z,101359.13
2022-12-14T08:11:48.846Z,101365.25
2022-12-14T08:14:51.900Z,101355.97
2022-12-14T08:17:56.651Z,101357.16
2022-12-14T08:20:58.984Z,101360.84
2022-12-14T08:24:01.488Z,101359.03
2022-12-14T08:27:04.278Z,101355.44
2022-12-14T08:30:08.599Z,101361.97
2022-12-14T08:33:10.824Z,101345.59
2022-12-14T08:36:21.711Z,101361.38
2022-12-14T08:39:25.044Z,101352.13
2022-12-14T08:42:27.253Z,101342.84
2022-12-14T08:45:29.386Z,101340.66
2022-12-14T08:48:31.648Z,101339.00
2022-12-14T08:51:37.329Z,101326.84
2022-12-14T08:54:39.347Z,101318.88
2022-12-14T08:57:41.541Z,101323.94
2022-12-14T09:00:43.624Z,101313.19
2022-12-14T09:03:47.048Z,101298.09
2022-12-14T09:06:49.106Z,101311.91
2022-12-14T09:09:51.305Z,101272.88
2022-12-14T09:12:53.369Z,101306.34
2022-12-14T09:16:06.949Z,101301.13
2022-12-14T09:19:09.103Z,101288.47
2022-12-14T09:22:11.627Z,101286.28
2022-12-14T09:25:13.929Z,101290.09
2022-12-14T09:28:16.044Z,101285.44
2022-12-14T09:31:21.143Z,101268.03
2022-12-14T09:34:23.909Z,101274.63
2022-12-14T09:37:26.289Z,101263.31
2022-12-14T09:40:32.760Z,101236.44
2022-12-14T09:43:43.820Z,101261.47
2022-12-14T09:46:45.956Z,101261.97
2022-12-14T09:49:57.523Z,101254.25
2022-12-14T09:53:07.124Z,101259.13
2022-12-14T09:56:14.921Z,101259.31
2022-12-14T09:59:18.618Z,101250.69
2022-12-14T10:02:38.223Z,101249.69
2022-12-14T10:05:54.756Z,101241.59
2022-12-14T10:09:03.675Z,101228.59
2022-12-14T10:12:34.089Z,101220.66
2022-12-14T10:15:58.005Z,101210.16
2022-12-14T10:19:10.489Z,101235.19
2022-12-14T10:22:36.428Z,101201.91
2022-12-14T10:25:40.374Z,101225.88
2022-12-14T10:29:00.731Z,101224.19
2022-12-14T10:32:40.127Z,101213.03
2022-12-14T10:35:45.895Z,101217.28
2022-12-14T10:39:29.232Z,101210.38
2022-12-14T10:42:58.382Z,101203.44
2022-12-14T10:46:14.493Z,101186.72
2022-12-14T10:49:30.142Z,101184.34
2022-12-14T10:52:40.345Z,101175.06
2022-12-14T10:55:46.033Z,101194.63
2022-12-14T10:59:15.899Z,101169.84
2022-12-14T11:02:40.249Z,101176.41
2022-12-14T11:06:05.899Z,101175.75
2022-12-14T11:09:24.340Z,101170.31
2022-12-14T11:12:28.906Z,101186.63
2022-12-14T11:15:47.158Z,101168.81
2022-12-14T11:19:00.519Z,101162.53
2022-12-14T11:22:17.153Z,101171.19
2022-12-14T11:25:49.398Z,101172.53
2022-12-14T11:28:56.397Z,101180.25
2022-12-14T11:32:08.145Z,101177.03
2022-12-14T11:35:17.539Z,101156.75
2022-12-14T11:38:30.277Z,101176.53
2022-12-14T11:41:42.508Z,101158.81
2022-12-14T11:44:46.451Z,101163.03
2022-12-14T11:48:20.277Z,101141.84
2022-12-14T11:51:22.358Z,101166.94
2022-12-14T11:54:24.867Z,101164.25
2022-12-14T11:57:35.747Z,101161.94
2022-12-14T12:00:49.156Z,101161.06
2022-12-14T12:03:58.922Z,101144.16
2022-12-14T12:07:13.085Z,101147.34
2022-12-14T12:10:34.099Z,101152.28
2022-12-14T12:13:40.136Z,101134.84
2022-12-14T12:16:44.913Z,101149.00
2022-12-14T12:19:51.745Z,101155.56
2022-12-14T12:23:02.361Z,101156.56
2022-12-14T12:26:15.296Z,101142.19
2022-12-14T12:29:43.614Z,101159.19
2022-12-14T12:32:52.346Z,101156.31
2022-12-14T12:35:56.827Z,101153.66
2022-12-14T12:39:08.035Z,101136.72
2022-12-14T12:42:31.434Z,101162.84
2022-12-14T12:45:43.681Z,101141.09
2022-12-14T12:48:52.191Z,101163.91
2022-12-14T12:52:00.515Z,101160.47
2022-12-14T12:55:14.285Z,101175.13
2022-12-14T12:58:30.722Z,101161.09
2022-12-14T13:01:35.733Z,101149.38
2022-12-14T13:04:41.362Z,101158.13
2022-12-14T13:07:45.068Z,101162.50
2022-12-14T13:11:24.607Z,101157.38
2022-12-14T13:14:19.224Z,101137.16
2022-12-14T13:17:33.179Z,101160.47
2022-12-14T13:20:36.475Z,101152.38
2022-12-14T13:23:46.338Z,101162.97
2022-12-14T13:27:17.883Z,101155.38
2022-12-14T13:30:29.141Z,101141.25
2022-12-14T13:33:55.039Z,101126.81
2022-12-14T13:37:18.272Z,101118.97
2022-12-14T13:40:32.247Z,101119.31
2022-12-14T13:44:04.761Z,101121.81
2022-12-14T13:47:15.684Z,101115.19
2022-12-14T13:50:39.989Z,101096.91
2022-12-14T13:53:50.070Z,101098.16
2022-12-14T13:57:08.056Z,101099.09
2022-12-14T14:00:45.397Z,101097.13
2022-12-14T14:03:51.249Z,101064.09
2022-12-14T14:06:55.815Z,101102.81
2022-12-14T14:10:04.972Z,101101.44
2022-12-14T14:13:28.652Z,101101.72
2022-12-14T14:16:43.647Z,101107.31
2022-12-14T14:19:49.655Z,101089.03
2022-12-14T14:23:17.540Z,101108.03
2022-12-14T14:26:23.053Z,101094.91
2022-12-14T14:29:30.478Z,101114.69
2022-12-14T14:32:44.845Z,101102.41
2022-12-14T14:35:49.777Z,101112.53
2022-12-14T14:38:56.111Z,101105.53
2022-12-14T14:42:03.383Z,101101.09
2022-12-14T14:45:11.271Z,101087.72
2022-12-14T14:48:50.539Z,101100.53
2022-12-14T14:51:53.125Z,101083.44
2022-12-14T14:55:43.322Z,101093.81
2022-12-14T14:58:35.201Z,101082.50
2022-12-14T15:01:48.227Z,101089.94
2022-12-14T15:04:57.065Z,101086.03
2022-12-14T15:08:22.654Z,101073.06
2022-12-14T15:11:28.549Z,101071.38
2022-12-14T15:14:36.679Z,101079.97
2022-12-14T15:17:39.068Z,101074.75
2022-12-14T15:20:41.570Z,101073.25
2022-12-14T15:23:50.908Z,101062.56
2022-12-14T15:26:54.080Z,101080.69
2022-12-14T15:34:04.616Z,100998.50
2022-12-14T15:42:34.367Z,101064.72
2022-12-14T15:45:44.213Z,101066.41
2022-12-14T15:48:46.244Z,101084.56
2022-12-14T15:51:50.706Z,101075.81
2022-12-14T15:54:53.172Z,101073.00
2022-12-14T15:57:55.832Z,101070.38
2022-12-14T16:01:27.987Z,101064.09
2022-12-14T16:04:31.232Z,101071.97
2022-12-14T16:07:42.468Z,101055.41
2022-12-14T16:10:46.303Z,101058.22
2022-12-14T16:13:50.750Z,101041.81
2022-12-14T16:16:55.543Z,101060.03
2022-12-14T16:20:20.847Z,101051.06
2022-12-14T16:23:33.383Z,101035.94
2022-12-14T16:26:38.766Z,101021.44
2022-12-14T16:29:48.070Z,101038.22
2022-12-14T16:33:06.575Z,101031.59
2022-12-14T16:36:22.706Z,100991.53
2022-12-14T16:39:32.542Z,101009.09
2022-12-14T16:42:36.414Z,101024.00
2022-12-14T16:46:06.300Z,101008.09
2022-12-14T16:49:31.016Z,101008.22
2022-12-14T16:52:37.660Z,100996.88
2022-12-14T16:56:14.997Z,101006.66
2022-12-14T16:59:42.261Z,100999.47
2022-12-14T17:02:55.847Z,100979.69
2022-12-14T17:06:05.499Z,100990.72
2022-12-14T17:09:20.107Z,100982.69
2022-12-14T17:12:24.140Z,100983.63
2022-12-14T17:15:28.481Z,100979.88
2022-12-14T17:18:34.433Z,100980.00
2022-12-14T17:21:37.150Z,100967.56
2022-12-14T17:24:39.491Z,100961.38
2022-12-14T17:27:42.082Z,100949.44
2022-12-14T17:30:44.131Z,100966.34
2022-12-14T17:33:46.211Z,100961.41
2022-12-14T17:36:48.339Z,100953.00
2022-12-14T17:39:51.073Z,100952.97
2022-12-14T17:42:56.256Z,100948.50
2022-12-14T17:46:01.398Z,100938.28
2022-12-14T17:49:06.799Z,100942.44
2022-12-14T17:52:36.881Z,100940.28
2022-12-14T17:55:38.952Z,100934.13
2022-12-14T17:58:41.134Z,100926.72
2022-12-14T18:01:45.738Z,100937.56
2022-12-14T18:04:52.175Z,100939.59
2022-12-14T18:07:54.842Z,100926.50
2022-12-14T18:11:01.045Z,100932.53
2022-12-14T18:14:03.703Z,100913.44
2022-12-14T18:17:11.165Z,100931.53
2022-12-14T18:20:14.321Z,100911.69
2022-12-14T18:23:17.660Z,100915.25
2022-12-14T18:26:21.272Z,100897.34
2022-12-14T18:29:23.428Z,100923.53
2022-12-14T18:32:25.836Z,100921.19
2022-12-14T18:35:31.527Z,100926.09
2022-12-14T18:38:33.511Z,100915.78
2022-12-14T18:41:35.827Z,100914.22
2022-12-14T18:44:38.822Z,100913.03
2022-12-14T18:47:42.457Z,100898.81
2022-12-14T18:50:46.301Z,100878.31
2022-12-14T18:53:54.782Z,100893.53
2022-12-14T18:56:57.267Z,100894.72
2022-12-14T19:00:00.002Z,100893.28
2022-12-14T19:03:03.758Z,100880.00
2022-12-14T19:06:42.372Z,100889.03
2022-12-14T19:09:31.213Z,100890.59
2022-12-14T19:12:35.503Z,100897.22
2022-12-14T19:15:37.751Z,100887.19
2022-12-14T19:18:39.957Z,100881.19
2022-12-14T19:21:42.296Z,100887.84
2022-12-14T19:24:47.804Z,100879.50
2022-12-14T19:28:56.099Z,100884.41
2022-12-14T19:31:17.333Z,100879.28
2022-12-14T19:34:19.785Z,100861.81
2022-12-14T19:37:23.209Z,100872.13
2022-12-14T19:40:26.860Z,100837.41
2022-12-14T19:43:30.551Z,100855.53
2022-12-14T19:46:32.917Z,100827.06
2022-12-14T19:49:34.970Z,100812.97
2022-12-14T19:52:38.623Z,100837.72
2022-12-14T19:55:40.813Z,100814.03
2022-12-14T19:58:43.622Z,100816.69
2022-12-14T20:01:48.154Z,100839.38
2022-12-14T20:04:50.887Z,100842.16
2022-12-14T20:07:52.964Z,100827.63
2022-12-14T20:10:55.163Z,100837.66
2022-12-14T20:14:02.950Z,100835.56
2022-12-14T20:17:11.262Z,100832.66
2022-12-14T20:20:13.867Z,100804.78
2022-12-14T20:23:15.945Z,100807.88
2022-12-14T20:26:21.088Z,100801.22
2022-12-14T20:29:23.695Z,100805.25
2022-12-14T20:32:28.567Z,100806.00
2022-12-14T20:35:53.702Z,100812.53
2022-12-14T20:39:01.850Z,100812.31
2022-12-14T20:42:04.118Z,100798.13
2022-12-14T20:45:11.898Z,100773.44
2022-12-14T20:48:14.061Z,100793.31
2022-12-14T20:51:16.274Z,100774.47
2022-12-14T20:54:22.388Z,100756.56
2022-12-14T20:57:35.998Z,100771.75
2022-12-14T21:00:38.110Z,100763.47
2022-12-14T21:03:42.520Z,100763.94
2022-12-14T21:06:44.817Z,100776.06
2022-12-14T21:09:46.986Z,100762.47
2022-12-14T21:12:49.264Z,100737.94
2022-12-14T21:16:01.418Z,100741.75
2022-12-14T21:19:05.882Z,100731.78
2022-12-14T21:22:14.662Z,100730.00
2022-12-14T21:25:16.822Z,100715.16
2022-12-14T21:28:18.979Z,100715.47
2022-12-14T21:31:25.235Z,100710.88
2022-12-14T21:34:30.236Z,100706.50
2022-12-14T21:37:32.510Z,100704.72
2022-12-14T21:40:54.417Z,100705.00
2022-12-14T21:43:59.378Z,100684.13
2022-12-14T21:47:01.870Z,100676.97
2022-12-14T21:50:06.001Z,100684.34
2022-12-14T21:53:08.498Z,100671.72
2022-12-14T21:56:30.435Z,100664.16
2022-12-14T21:59:35.796Z,100655.19
2022-12-14T22:02:37.999Z,100639.06
2022-12-14T22:05:45.118Z,100636.06
2022-12-14T22:08:47.580Z,100627.94
2022-12-14T22:11:50.769Z,100634.72
2022-12-14T22:14:55.671Z,100610.84
2022-12-14T22:17:58.002Z,100592.16
2022-12-14T22:21:06.810Z,100594.75
2022-12-14T22:24:10.136Z,100583.69
2022-12-14T22:27:12.938Z,100585.25
2022-12-14T22:30:15.511Z,100583.41
2022-12-14T22:33:17.628Z,100566.72
2022-12-14T22:36:19.629Z,100540.22
2022-12-14T22:39:21.602Z,100571.41
2022-12-14T22:42:23.640Z,100546.28
2022-12-14T22:45:27.739Z,100552.59
2022-12-14T22:48:33.919Z,100554.41
2022-12-14T22:51:38.175Z,100530.75
2022-12-14T22:54:42.866Z,100541.63
2022-12-14T22:57:47.345Z,100526.63
2022-12-14T23:00:50.006Z,100559.75
2022-12-14T23:03:53.151Z,100540.59
2022-12-14T23:06:55.733Z,100543.19
2022-12-14T23:10:16.502Z,100541.56
2022-12-14T23:13:37.337Z,100501.72
2022-12-14T23:16:58.084Z,100535.59
2022-12-14T23:20:18.995Z,100516.75
2022-12-14T23:23:42.111Z,100527.28
2022-12-14T23:27:09.649Z,100475.88
2022-12-14T23:30:30.952Z,100484.06
2022-12-14T23:33:51.921Z,100503.44
2022-12-14T23:37:17.993Z,100513.22
2022-12-14T23:40:41.930Z,100476.63
2022-12-14T23:44:02.733Z,100485.78
2022-12-14T23:47:23.636Z,100496.41
2022-12-14T23:50:45.874Z,100491.66
2022-12-14T23:54:07.950Z,100482.50
2022-12-14T23:57:28.728Z,100479.69
